Time;durP1;ratioP1;P1;durP2;ratioP2;P2;SDS_P1;SDS_P2;PMS_P1;PMS_P2;Temp;Humidity;BMP_temperature;BMP_pressure;BME280_temperature;BME280_humidity;BME280_pressure;Samples;Min_cycle;Max_cycle;Signal;HPM_P1;HPM_P2
2021/09/03 00:00:14;;;;;;;4.55;3.17;;;;;;;;;;2082432;28;20030;-75
2021/09/03 00:01:33;;;;;;;3.85;2.83;;;;;;;;;;2080745;28;20105;-75
2021/09/03 00:02:53;;;;;;;5.55;3.45;;;;;;;;;;2082885;28;20037;-76
2021/09/03 00:04:12;;;;;;;4.72;3.28;;;;;;;;;;2080232;28;20065;-75
2021/09/03 00:05:31;;;;;;;3.15;2.85;;;;;;;;;;2081569;28;20029;-75
2021/09/03 00:06:50;;;;;;;3.40;3.10;;;;;;;;;;2081855;28;20022;-76
2021/09/03 00:08:08;;;;;;;6.93;3.30;;;;;;;;;;2082020;28;20029;-76
2021/09/03 00:09:27;;;;;;;4.00;2.95;;;;;;;;;;2080417;28;20022;-75
2021/09/03 00:10:46;;;;;;;3.10;2.80;;;;;;;;;;2084258;28;20112;-75
2021/09/03 00:12:06;;;;;;;4.20;3.03;;;;;;;;;;2078641;28;20100;-76
2021/09/03 00:13:26;;;;;;;3.22;2.92;;;;;;;;;;2085664;28;20037;-76
2021/09/03 00:14:45;;;;;;;2.88;2.58;;;;;;;;;;2079045;28;20033;-75
2021/09/03 00:16:04;;;;;;;4.78;2.88;;;;;;;;;;2081870;28;20037;-76
2021/09/03 00:17:23;;;;;;;3.75;3.42;;;;;;;;;;2081601;28;20045;-76
2021/09/03 00:18:42;;;;;;;5.38;2.60;;;;;;;;;;2076401;28;20112;-76
2021/09/03 00:20:02;;;;;;;3.42;2.63;;;;;;;;;;2077544;28;20513;-75
2021/09/03 00:21:21;;;;;;;3.55;2.45;;;;;;;;;;2082279;28;20029;-75
2021/09/03 00:22:40;;;;;;;3.85;2.75;;;;;;;;;;2080986;28;20509;-75
2021/09/03 00:23:59;;;;;;;4.68;2.65;;;;;;;;;;2075380;28;20030;-75
2021/09/03 00:25:17;;;;;;;5.22;3.40;;;;;;;;;;2080117;28;21487;-75
2021/09/03 00:26:36;;;;;;;3.78;3.45;;;;;;;;;;2083671;28;20057;-76
2021/09/03 00:27:55;;;;;;;5.47;3.15;;;;;;;;;;2087723;28;20447;-76
2021/09/03 00:29:14;;;;;;;5.55;2.92;;;;;;;;;;2078694;28;20025;-75
2021/09/03 00:30:33;;;;;;;4.07;3.10;;;;;;;;;;2080182;28;20022;-75
2021/09/03 00:31:52;;;;;;;3.80;3.42;;;;;;;;;;2077463;28;20490;-75
2021/09/03 00:33:11;;;;;;;3.42;3.13;;;;;;;;;;2075682;28;20037;-75
2021/09/03 00:34:30;;;;;;;2.85;2.65;;;;;;;;;;2080626;28;20466;-75
2021/09/03 00:35:49;;;;;;;3.45;2.90;;;;;;;;;;2080404;28;20424;-75
2021/09/03 00:37:08;;;;;;;3.40;3.03;;;;;;;;;;2082587;28;20033;-75
2021/09/03 00:38:27;;;;;;;3.30;2.95;;;;;;;;;;2081127;28;20029;-75
2021/09/03 00:39:46;;;;;;;3.03;2.72;;;;;;;;;;2078424;28;20493;-75
2021/09/03 00:41:04;;;;;;;2.58;2.38;;;;;;;;;;2078456;28;20080;-77
2021/09/03 00:42:24;;;;;;;2.80;2.60;;;;;;;;;;2077038;28;20025;-75
2021/09/03 00:43:44;;;;;;;3.53;2.50;;;;;;;;;;2079047;28;20033;-75
2021/09/03 00:45:05;;;;;;;4.90;3.10;;;;;;;;;;2078713;28;20029;-75
2021/09/03 00:46:24;;;;;;;3.25;2.95;;;;;;;;;;2083921;28;20021;-76
2021/09/03 00:47:43;;;;;;;3.10;2.75;;;;;;;;;;2081653;28;20033;-74
2021/09/03 00:49:02;;;;;;;3.45;2.58;;;;;;;;;;2078079;28;20528;-75
2021/09/03 00:50:21;;;;;;;2.83;2.55;;;;;;;;;;2084538;28;20033;-74
2021/09/03 00:51:40;;;;;;;3.47;2.50;;;;;;;;;;2080000;28;20029;-75
2021/09/03 00:53:00;;;;;;;2.80;2.60;;;;;;;;;;2080327;28;20150;-74
2021/09/03 00:54:18;;;;;;;2.22;2.08;;;;;;;;;;2076814;28;20061;-74
2021/09/03 00:55:37;;;;;;;3.05;2.70;;;;;;;;;;2077559;28;20029;-74
2021/09/03 00:56:56;;;;;;;3.40;2.28;;;;;;;;;;2078176;28;20034;-74
2021/09/03 00:58:15;;;;;;;2.60;2.40;;;;;;;;;;2077972;28;20030;-74
2021/09/03 00:59:34;;;;;;;3.08;2.38;;;;;;;;;;2081419;28;20029;-74
2021/09/03 01:00:53;;;;;;;2.92;2.72;;;;;;;;;;2081033;28;20025;-74
2021/09/03 01:02:12;;;;;;;4.13;2.42;;;;;;;;;;2081727;28;20120;-74
2021/09/03 01:03:31;;;;;;;3.05;2.50;;;;;;;;;;2079517;28;20041;-74
2021/09/03 01:04:49;;;;;;;3.40;3.08;;;;;;;;;;2075936;28;20029;-74
2021/09/03 01:06:08;;;;;;;3.05;2.72;;;;;;;;;;2078785;28;20068;-74
2021/09/03 01:07:27;;;;;;;4.10;2.63;;;;;;;;;;2082889;28;20029;-74
2021/09/03 01:08:46;;;;;;;3.40;2.50;;;;;;;;;;2080459;28;20030;-74
2021/09/03 01:10:05;;;;;;;3.95;2.72;;;;;;;;;;2076593;28;20037;-74
2021/09/03 01:11:23;;;;;;;3.15;2.47;;;;;;;;;;2080615;28;20033;-75
2021/09/03 01:12:42;;;;;;;2.55;2.35;;;;;;;;;;2078940;28;20033;-75
2021/09/03 01:14:02;;;;;;;2.70;2.50;;;;;;;;;;2080940;28;20030;-74
2021/09/03 01:15:21;;;;;;;3.15;1.88;;;;;;;;;;2083335;28;20466;-76
2021/09/03 01:16:40;;;;;;;4.22;2.65;;;;;;;;;;2080939;28;20084;-74
2021/09/03 01:17:59;;;;;;;3.38;3.08;;;;;;;;;;2081071;28;20022;-75
2021/09/03 01:19:18;;;;;;;3.63;2.97;;;;;;;;;;2081659;28;20022;-75
2021/09/03 01:20:37;;;;;;;2.95;2.70;;;;;;;;;;2081506;28;20022;-74
2021/09/03 01:21:57;;;;;;;2.70;2.50;;;;;;;;;;2078954;28;20492;-74
2021/09/03 01:23:16;;;;;;;3.38;3.05;;;;;;;;;;2081378;28;20033;-75
2021/09/03 01:24:37;;;;;;;5.45;3.17;;;;;;;;;;2083097;28;20493;-74
2021/09/03 01:26:00;;;;;;;4.55;2.65;;;;;;;;;;2085472;28;20073;-75
2021/09/03 01:27:19;;;;;;;;;;;;;;;;;;2077018;28;20026;-75
2021/09/03 01:28:38;;;;;;;4.07;2.95;;;;;;;;;;2082593;28;19905;-75
2021/09/03 01:29:57;;;;;;;4.85;2.78;;;;;;;;;;2089992;28;20029;-75
2021/09/03 01:31:17;;;;;;;4.97;3.08;;;;;;;;;;2080765;28;20025;-75
2021/09/03 01:32:36;;;;;;;2.92;2.72;;;;;;;;;;2082127;28;20053;-75
2021/09/03 01:33:57;;;;;;;4.72;3.20;;;;;;;;;;2080816;28;20033;-74
2021/09/03 01:35:16;;;;;;;3.40;3.10;;;;;;;;;;2081541;28;20029;-76
2021/09/03 01:36:35;;;;;;;4.28;3.08;;;;;;;;;;2081191;28;20029;-74
2021/09/03 01:37:54;;;;;;;4.45;2.65;;;;;;;;;;2082596;28;20497;-75
2021/09/03 01:39:12;;;;;;;3.15;2.67;;;;;;;;;;2081402;28;20435;-74
2021/09/03 01:40:31;;;;;;;3.97;3.53;;;;;;;;;;2086312;28;20029;-74
2021/09/03 01:41:50;;;;;;;5.13;3.13;;;;;;;;;;2077222;28;20133;-74
2021/09/03 01:43:09;;;;;;;3.28;2.97;;;;;;;;;;2080547;28;20033;-74
2021/09/03 01:44:28;;;;;;;3.53;3.22;;;;;;;;;;2081774;28;20033;-75
2021/09/03 01:45:46;;;;;;;3.25;2.95;;;;;;;;;;2081372;28;20489;-75
2021/09/03 01:47:05;;;;;;;3.10;2.80;;;;;;;;;;2076501;28;20033;-74
2021/09/03 01:48:24;;;;;;;3.08;2.80;;;;;;;;;;2078093;28;20104;-75
2021/09/03 01:49:42;;;;;;;2.80;2.58;;;;;;;;;;2083009;28;20025;-75
2021/09/03 01:51:01;;;;;;;3.53;2.85;;;;;;;;;;2081721;28;20025;-77
2021/09/03 01:52:20;;;;;;;2.90;2.70;;;;;;;;;;2078522;28;20497;-75
2021/09/03 01:53:39;;;;;;;4.03;2.88;;;;;;;;;;2080986;28;20022;-74
2021/09/03 01:54:58;;;;;;;4.13;2.53;;;;;;;;;;2083013;28;20055;-75
2021/09/03 01:56:17;;;;;;;3.10;2.80;;;;;;;;;;2081480;28;20108;-75
2021/09/03 01:57:37;;;;;;;2.50;2.30;;;;;;;;;;2080612;28;20022;-75
2021/09/03 01:58:55;;;;;;;5.47;2.78;;;;;;;;;;2079431;28;20029;-74
2021/09/03 02:00:14;;;;;;;3.08;2.70;;;;;;;;;;2077913;28;20061;-75
2021/09/03 02:01:34;;;;;;;3.05;2.63;;;;;;;;;;2075640;28;20025;-75
2021/09/03 02:02:52;;;;;;;4.32;2.78;;;;;;;;;;2078357;28;20033;-74
2021/09/03 02:04:11;;;;;;;2.88;2.63;;;;;;;;;;2074600;28;20450;-75
2021/09/03 02:05:30;;;;;;;3.35;3.03;;;;;;;;;;2078024;28;20033;-75
2021/09/03 02:06:49;;;;;;;3.40;3.10;;;;;;;;;;2082664;28;20029;-75
2021/09/03 02:08:08;;;;;;;2.38;2.17;;;;;;;;;;2076294;28;20421;-74
2021/09/03 02:09:27;;;;;;;4.63;2.60;;;;;;;;;;2078762;28;20034;-75
2021/09/03 02:10:45;;;;;;;2.05;1.90;;;;;;;;;;2077245;28;20037;-75
2021/09/03 02:12:04;;;;;;;5.25;3.13;;;;;;;;;;2077729;28;20021;-77
2021/09/03 02:13:23;;;;;;;2.58;2.38;;;;;;;;;;2075599;28;20033;-74
2021/09/03 02:14:43;;;;;;;3.80;2.40;;;;;;;;;;2077691;28;20117;-75
2021/09/03 02:16:02;;;;;;;5.95;2.42;;;;;;;;;;2077621;28;20034;-76
2021/09/03 02:17:21;;;;;;;3.38;2.92;;;;;;;;;;2077462;28;20021;-75
2021/09/03 02:18:40;;;;;;;4.30;2.40;;;;;;;;;;2078606;28;20561;-75
2021/09/03 02:19:59;;;;;;;2.70;2.35;;;;;;;;;;2079320;28;20463;-75
2021/09/03 02:21:18;;;;;;;2.30;2.10;;;;;;;;;;2080212;28;20104;-77
2021/09/03 02:22:37;;;;;;;4.15;2.63;;;;;;;;;;2074550;28;20473;-75
2021/09/03 02:23:55;;;;;;;2.63;2.40;;;;;;;;;;2081431;28;20474;-74
2021/09/03 02:25:14;;;;;;;3.47;2.60;;;;;;;;;;2079995;28;20045;-75
2021/09/03 02:26:33;;;;;;;3.85;2.58;;;;;;;;;;2073746;28;20029;-74
2021/09/03 02:27:52;;;;;;;3.97;3.28;;;;;;;;;;2080204;28;20417;-74
2021/09/03 02:29:11;;;;;;;3.03;2.60;;;;;;;;;;2077618;28;20030;-75
2021/09/03 02:30:29;;;;;;;2.75;2.55;;;;;;;;;;2077351;28;20029;-75
2021/09/03 02:31:48;;;;;;;2.80;2.60;;;;;;;;;;2075140;28;20021;-75
2021/09/03 02:33:07;;;;;;;2.55;2.30;;;;;;;;;;2076183;28;20038;-75
2021/09/03 02:34:26;;;;;;;3.22;2.58;;;;;;;;;;2081268;28;20037;-75
2021/09/03 02:35:44;;;;;;;3.08;2.78;;;;;;;;;;2080055;28;20384;-75
2021/09/03 02:37:03;;;;;;;3.75;2.67;;;;;;;;;;2080634;28;20033;-76
2021/09/03 02:38:22;;;;;;;3.55;2.13;;;;;;;;;;2077700;28;20038;-75
2021/09/03 02:39:41;;;;;;;4.75;2.90;;;;;;;;;;2080395;28;20041;-75
2021/09/03 02:40:59;;;;;;;4.72;2.63;;;;;;;;;;2076756;28;20440;-75
2021/09/03 02:42:18;;;;;;;3.13;2.67;;;;;;;;;;2073545;28;20467;-74
2021/09/03 02:43:37;;;;;;;13.35;3.55;;;;;;;;;;2080733;28;20025;-75
2021/09/03 02:44:56;;;;;;;4.88;2.35;;;;;;;;;;2082868;28;20463;-74
2021/09/03 02:46:15;;;;;;;3.60;2.20;;;;;;;;;;2079420;28;20455;-74
2021/09/03 02:47:34;;;;;;;3.00;2.70;;;;;;;;;;2083743;28;20025;-75
2021/09/03 02:48:53;;;;;;;4.30;2.72;;;;;;;;;;2075591;28;20489;-75
2021/09/03 02:50:14;;;;;;;2.92;2.28;;;;;;;;;;2081232;28;20450;-75
2021/09/03 02:51:33;;;;;;;2.33;2.13;;;;;;;;;;2081384;28;20101;-75
2021/09/03 02:52:52;;;;;;;2.55;2.30;;;;;;;;;;2079891;28;20056;-75
2021/09/03 02:54:11;;;;;;;3.30;2.95;;;;;;;;;;2083674;28;20034;-76
2021/09/03 02:55:30;;;;;;;5.55;2.55;;;;;;;;;;2079169;28;20017;-75
2021/09/03 02:56:49;;;;;;;3.17;2.88;;;;;;;;;;2079494;28;20021;-74
2021/09/03 02:58:08;;;;;;;5.72;2.30;;;;;;;;;;2081210;28;20509;-75
2021/09/03 02:59:26;;;;;;;2.83;2.53;;;;;;;;;;2078907;28;20033;-74
2021/09/03 03:00:48;;;;;;;5.18;2.38;;;;;;;;;;2082112;28;20543;-76
2021/09/03 03:02:07;;;;;;;3.33;3.03;;;;;;;;;;2086058;28;20557;-75
2021/09/03 03:03:26;;;;;;;2.67;2.35;;;;;;;;;;2083794;28;20057;-75
2021/09/03 03:04:45;;;;;;;3.22;2.60;;;;;;;;;;2080733;28;20034;-75
2021/09/03 03:06:04;;;;;;;2.88;2.58;;;;;;;;;;2087300;28;20092;-74
2021/09/03 03:07:23;;;;;;;3.03;2.25;;;;;;;;;;2082296;28;20089;-74
2021/09/03 03:08:44;;;;;;;3.42;2.60;;;;;;;;;;2082367;28;20451;-76
2021/09/03 03:10:06;;;;;;;3.13;2.83;;;;;;;;;;2075715;28;20030;-74
2021/09/03 03:11:25;;;;;;;2.50;2.25;;;;;;;;;;2079333;28;20026;-74
2021/09/03 03:12:44;;;;;;;4.47;2.58;;;;;;;;;;2085150;28;20025;-74
2021/09/03 03:14:09;;;;;;;3.10;2.20;;;;;;;;;;2081415;28;20516;-74
2021/09/03 03:15:28;;;;;;;2.85;2.60;;;;;;;;;;2083939;28;20120;-74
2021/09/03 03:16:46;;;;;;;5.38;2.78;;;;;;;;;;2076923;28;20473;-75
2021/09/03 03:18:05;;;;;;;3.00;2.72;;;;;;;;;;2081236;28;20033;-75
2021/09/03 03:19:25;;;;;;;3.03;2.42;;;;;;;;;;2089321;28;20025;-74
2021/09/03 03:20:44;;;;;;;3.22;2.92;;;;;;;;;;2086118;28;20385;-75
2021/09/03 03:22:03;;;;;;;2.97;2.15;;;;;;;;;;2080151;28;20061;-74
2021/09/03 03:23:22;;;;;;;3.17;2.60;;;;;;;;;;2077388;28;20030;-75
2021/09/03 03:24:44;;;;;;;3.03;2.70;;;;;;;;;;2081644;28;20041;-75
2021/09/03 03:26:03;;;;;;;3.65;2.80;;;;;;;;;;2082942;28;20029;-74
2021/09/03 03:27:22;;;;;;;7.05;3.00;;;;;;;;;;2082076;28;20516;-75
2021/09/03 03:28:41;;;;;;;4.13;3.17;;;;;;;;;;2078826;28;20037;-74
2021/09/03 03:29:59;;;;;;;3.05;2.72;;;;;;;;;;2085459;28;20477;-75
2021/09/03 03:31:18;;;;;;;2.90;2.50;;;;;;;;;;2081264;28;20029;-75
2021/09/03 03:32:37;;;;;;;2.78;2.40;;;;;;;;;;2082952;28;20446;-74
2021/09/03 03:33:56;;;;;;;3.40;3.10;;;;;;;;;;2081894;28;20026;-74
2021/09/03 03:35:15;;;;;;;2.70;2.50;;;;;;;;;;2081927;28;20481;-74
2021/09/03 03:36:34;;;;;;;6.53;3.55;;;;;;;;;;2074778;28;20042;-74
2021/09/03 03:37:53;;;;;;;3.03;2.55;;;;;;;;;;2084574;28;20030;-74
2021/09/03 03:39:12;;;;;;;3.42;2.90;;;;;;;;;;2078966;28;20497;-74
2021/09/03 03:40:31;;;;;;;7.13;2.97;;;;;;;;;;2087703;28;20041;-75
2021/09/03 03:41:50;;;;;;;3.50;3.20;;;;;;;;;;2081039;28;20021;-74
2021/09/03 03:43:09;;;;;;;4.15;3.03;;;;;;;;;;2077798;28;20521;-74
2021/09/03 03:44:27;;;;;;;3.00;2.70;;;;;;;;;;2078361;28;20033;-74
2021/09/03 03:45:46;;;;;;;3.95;2.90;;;;;;;;;;2079347;28;20022;-73
2021/09/03 03:47:05;;;;;;;4.13;2.70;;;;;;;;;;2081350;28;20030;-74
2021/09/03 03:48:26;;;;;;;4.07;3.05;;;;;;;;;;2087724;28;20468;-74
2021/09/03 03:49:44;;;;;;;4.72;3.20;;;;;;;;;;2075888;28;20025;-74
2021/09/03 03:51:03;;;;;;;3.30;3.00;;;;;;;;;;2078357;28;20029;-75
2021/09/03 03:52:22;;;;;;;3.58;3.05;;;;;;;;;;2080137;28;20025;-75
2021/09/03 03:53:42;;;;;;;4.55;3.50;;;;;;;;;;2081579;28;20038;-75
2021/09/03 03:55:00;;;;;;;3.17;2.88;;;;;;;;;;2076837;28;20041;-76
2021/09/03 03:56:19;;;;;;;5.15;3.13;;;;;;;;;;2082088;28;20117;-74
2021/09/03 03:57:38;;;;;;;2.55;2.35;;;;;;;;;;2081201;28;20064;-75
2021/09/03 03:58:57;;;;;;;4.35;3.00;;;;;;;;;;2076903;28;20057;-74
2021/09/03 04:00:16;;;;;;;2.83;2.63;;;;;;;;;;2077378;28;20045;-75
2021/09/03 04:01:35;;;;;;;5.03;2.95;;;;;;;;;;2078957;28;20121;-74
2021/09/03 04:02:54;;;;;;;3.17;2.88;;;;;;;;;;2082565;28;20485;-74
2021/09/03 04:04:13;;;;;;;3.28;2.70;;;;;;;;;;2079086;28;20065;-74
2021/09/03 04:05:32;;;;;;;3.55;3.25;;;;;;;;;;2083674;28;20025;-75
2021/09/03 04:06:50;;;;;;;3.58;3.13;;;;;;;;;;2081307;28;20057;-74
2021/09/03 04:08:12;;;;;;;4.10;3.45;;;;;;;;;;2081578;28;20025;-77
2021/09/03 04:09:31;;;;;;;4.40;3.42;;;;;;;;;;2086167;28;20033;-74
2021/09/03 04:10:49;;;;;;;3.58;3.10;;;;;;;;;;2085036;28;20025;-74
2021/09/03 04:12:09;;;;;;;3.35;3.08;;;;;;;;;;2081909;28;20104;-74
2021/09/03 04:13:28;;;;;;;4.38;3.70;;;;;;;;;;2076739;28;20421;-75
2021/09/03 04:14:47;;;;;;;5.25;3.20;;;;;;;;;;2083446;28;20474;-74
2021/09/03 04:16:06;;;;;;;6.22;2.92;;;;;;;;;;2081990;28;20033;-75
2021/09/03 04:17:25;;;;;;;3.28;2.97;;;;;;;;;;2084586;28;20037;-75
2021/09/03 04:18:44;;;;;;;4.55;3.10;;;;;;;;;;2079072;28;20034;-74
2021/09/03 04:20:03;;;;;;;5.55;3.28;;;;;;;;;;2077768;28;20033;-75
2021/09/03 04:21:22;;;;;;;3.50;3.17;;;;;;;;;;2081671;28;20029;-75
2021/09/03 04:22:41;;;;;;;3.97;3.38;;;;;;;;;;2082205;28;20025;-74
2021/09/03 04:24:00;;;;;;;3.20;2.90;;;;;;;;;;2080792;28;20068;-75
2021/09/03 04:25:19;;;;;;;4.40;2.78;;;;;;;;;;2084887;28;20052;-74
2021/09/03 04:26:37;;;;;;;5.30;3.25;;;;;;;;;;2083716;28;20021;-76
2021/09/03 04:27:56;;;;;;;2.50;2.28;;;;;;;;;;2085869;28;20104;-77
2021/09/03 04:29:15;;;;;;;5.28;2.50;;;;;;;;;;2077947;28;20041;-75
2021/09/03 04:30:34;;;;;;;4.70;2.60;;;;;;;;;;2082137;28;20427;-76
2021/09/03 04:31:56;;;;;;;2.58;2.38;;;;;;;;;;2083203;28;20493;-76
2021/09/03 04:33:15;;;;;;;3.40;1.95;;;;;;;;;;2084692;28;20029;-77
2021/09/03 04:34:34;;;;;;;4.22;2.55;;;;;;;;;;2083215;28;20088;-76
2021/09/03 04:35:53;;;;;;;3.08;2.25;;;;;;;;;;2084318;28;20029;-76
2021/09/03 04:37:12;;;;;;;3.25;2.20;;;;;;;;;;2074712;28;20033;-76
2021/09/03 04:38:31;;;;;;;3.03;1.90;;;;;;;;;;2077371;28;20037;-76
2021/09/03 04:39:50;;;;;;;6.82;2.03;;;;;;;;;;2076721;28;20112;-76
2021/09/03 04:41:10;;;;;;;2.50;1.90;;;;;;;;;;2076917;28;20029;-76
2021/09/03 04:42:28;;;;;;;3.08;1.88;;;;;;;;;;2077442;28;20109;-76
2021/09/03 04:43:47;;;;;;;1.65;1.55;;;;;;;;;;2076710;28;20489;-77
2021/09/03 04:45:07;;;;;;;1.98;1.75;;;;;;;;;;2076023;28;20065;-76
2021/09/03 04:46:26;;;;;;;3.15;2.00;;;;;;;;;;2079923;28;20477;-78
2021/09/03 04:47:45;;;;;;;3.33;1.55;;;;;;;;;;2081187;28;20029;-76
2021/09/03 04:49:03;;;;;;;2.33;1.55;;;;;;;;;;2077986;28;20029;-77
2021/09/03 04:50:22;;;;;;;2.08;1.88;;;;;;;;;;2078242;28;20029;-76
2021/09/03 04:51:41;;;;;;;2.03;1.65;;;;;;;;;;2082289;28;20033;-76
2021/09/03 04:53:00;;;;;;;1.58;1.48;;;;;;;;;;2079717;28;20378;-75
2021/09/03 04:54:19;;;;;;;1.42;1.33;;;;;;;;;;2083321;28;20108;-78
2021/09/03 04:55:38;;;;;;;4.38;1.80;;;;;;;;;;2076324;28;20030;-75
2021/09/03 04:56:57;;;;;;;1.60;1.50;;;;;;;;;;2076497;28;20100;-76
2021/09/03 04:58:16;;;;;;;6.18;1.77;;;;;;;;;;2081065;28;20026;-75
2021/09/03 04:59:35;;;;;;;2.30;1.48;;;;;;;;;;2080177;28;20026;-76
2021/09/03 05:00:54;;;;;;;1.48;1.20;;;;;;;;;;2081160;28;20029;-75
2021/09/03 05:02:13;;;;;;;1.83;1.17;;;;;;;;;;2077883;28;20029;-73
2021/09/03 05:03:31;;;;;;;3.28;1.40;;;;;;;;;;2079784;28;20021;-75
2021/09/03 05:04:51;;;;;;;2.15;0.90;;;;;;;;;;2081283;28;20057;-74
2021/09/03 05:06:10;;;;;;;1.00;0.80;;;;;;;;;;2084641;28;20049;-76
2021/09/03 05:07:29;;;;;;;0.70;0.70;;;;;;;;;;2090935;28;20500;-74
2021/09/03 05:08:48;;;;;;;1.85;1.05;;;;;;;;;;2081390;28;20388;-75
2021/09/03 05:10:08;;;;;;;5.13;0.90;;;;;;;;;;2076716;28;20025;-75
2021/09/03 05:11:26;;;;;;;1.65;0.93;;;;;;;;;;2077624;28;20029;-78
2021/09/03 05:12:48;;;;;;;2.03;0.80;;;;;;;;;;2074520;28;20022;-75
2021/09/03 05:14:06;;;;;;;1.33;0.90;;;;;;;;;;2078446;28;20026;-75
2021/09/03 05:15:32;;;;;;;2.30;0.70;;;;;;;;;;2078029;28;20396;-75
2021/09/03 05:16:51;;;;;;;0.77;0.60;;;;;;;;;;2077777;28;20105;-75
2021/09/03 05:18:10;;;;;;;1.50;1.00;;;;;;;;;;2081870;28;20030;-77
2021/09/03 05:19:29;;;;;;;1.55;0.70;;;;;;;;;;2086167;28;20021;-75
2021/09/03 05:20:48;;;;;;;0.60;0.60;;;;;;;;;;2080167;28;20534;-75
2021/09/03 05:22:07;;;;;;;1.75;0.75;;;;;;;;;;2076827;28;20445;-79
2021/09/03 05:23:26;;;;;;;1.88;0.82;;;;;;;;;;2081759;28;20033;-76
2021/09/03 05:24:45;;;;;;;3.97;0.60;;;;;;;;;;2080392;28;20046;-74
2021/09/03 05:26:04;;;;;;;2.70;1.00;;;;;;;;;;2075573;28;20502;-76
2021/09/03 05:27:23;;;;;;;0.82;0.60;;;;;;;;;;2077461;28;20032;-75
2021/09/03 05:28:41;;;;;;;1.42;1.00;;;;;;;;;;2077775;28;20108;-75
2021/09/03 05:30:00;;;;;;;1.67;0.70;;;;;;;;;;2077101;28;20378;-75
2021/09/03 05:31:19;;;;;;;1.35;0.80;;;;;;;;;;2080091;28;20041;-75
2021/09/03 05:32:38;;;;;;;0.90;0.80;;;;;;;;;;2079759;28;20097;-75
2021/09/03 05:33:56;;;;;;;2.75;0.65;;;;;;;;;;2072335;28;20078;-77
2021/09/03 05:35:15;;;;;;;1.55;0.93;;;;;;;;;;2075775;28;20033;-76
2021/09/03 05:36:34;;;;;;;1.70;0.63;;;;;;;;;;2080479;28;20068;-75
2021/09/03 05:37:56;;;;;;;3.55;0.55;;;;;;;;;;2076818;28;20450;-74
2021/09/03 05:39:15;;;;;;;0.63;0.60;;;;;;;;;;2079506;28;20029;-75
2021/09/03 05:40:34;;;;;;;1.77;0.70;;;;;;;;;;2079644;28;20026;-76
2021/09/03 05:41:53;;;;;;;1.70;0.40;;;;;;;;;;2077839;28;20026;-75
2021/09/03 05:43:12;;;;;;;0.50;0.50;;;;;;;;;;2079676;28;20029;-75
2021/09/03 05:44:31;;;;;;;0.88;0.70;;;;;;;;;;2081223;28;20034;-76
2021/09/03 05:45:50;;;;;;;3.33;0.52;;;;;;;;;;2076855;28;20017;-75
2021/09/03 05:47:09;;;;;;;1.33;0.60;;;;;;;;;;2077218;28;20107;-75
2021/09/03 05:48:27;;;;;;;2.05;0.75;;;;;;;;;;2080846;28;20100;-75
2021/09/03 05:49:46;;;;;;;1.73;0.80;;;;;;;;;;2081126;28;20017;-76
2021/09/03 05:51:05;;;;;;;3.13;0.70;;;;;;;;;;2079315;28;20022;-76
2021/09/03 05:52:24;;;;;;;1.55;1.02;;;;;;;;;;2082630;28;20358;-78
2021/09/03 05:53:43;;;;;;;2.92;0.70;;;;;;;;;;2078450;28;20502;-76
2021/09/03 05:55:05;;;;;;;3.42;0.60;;;;;;;;;;2081196;28;20041;-77
2021/09/03 05:56:24;;;;;;;3.42;0.80;;;;;;;;;;2078435;28;20488;-76
2021/09/03 05:57:43;;;;;;;1.50;1.00;;;;;;;;;;2081383;28;20156;-78
2021/09/03 05:59:02;;;;;;;2.17;0.57;;;;;;;;;;2080162;28;20037;-77
2021/09/03 06:00:21;;;;;;;0.30;0.28;;;;;;;;;;2081459;28;20048;-77
2021/09/03 06:01:40;;;;;;;3.38;0.88;;;;;;;;;;2081814;28;20022;-78
2021/09/03 06:02:59;;;;;;;3.92;0.77;;;;;;;;;;2076952;28;20116;-76
2021/09/03 06:04:18;;;;;;;1.40;0.50;;;;;;;;;;2082053;28;20029;-76
2021/09/03 06:05:37;;;;;;;2.22;1.00;;;;;;;;;;2090365;28;20476;-76
2021/09/03 06:06:56;;;;;;;3.15;0.50;;;;;;;;;;2084816;28;20029;-75
2021/09/03 06:08:15;;;;;;;2.63;0.40;;;;;;;;;;2080718;28;20493;-76
2021/09/03 06:09:34;;;;;;;1.08;0.43;;;;;;;;;;2079238;28;20029;-76
2021/09/03 06:10:53;;;;;;;0.85;0.70;;;;;;;;;;2080935;28;20026;-76
2021/09/03 06:12:12;;;;;;;0.60;0.52;;;;;;;;;;2081501;28;20033;-76
2021/09/03 06:13:32;;;;;;;4.40;0.60;;;;;;;;;;2080088;28;20049;-77
2021/09/03 06:14:51;;;;;;;3.03;0.68;;;;;;;;;;2080779;28;20108;-76
2021/09/03 06:16:10;;;;;;;2.42;0.60;;;;;;;;;;2079430;28;20112;-75
2021/09/03 06:17:29;;;;;;;1.00;0.43;;;;;;;;;;2081935;28;20037;-76
2021/09/03 06:18:48;;;;;;;2.75;0.55;;;;;;;;;;2085852;28;20029;-76
2021/09/03 06:20:07;;;;;;;0.95;0.65;;;;;;;;;;2076671;28;20022;-75
2021/09/03 06:21:26;;;;;;;1.90;0.50;;;;;;;;;;2072092;28;20029;-76
2021/09/03 06:22:45;;;;;;;7.00;0.50;;;;;;;;;;2078077;28;20409;-77
2021/09/03 06:24:27;;;;;;;2.35;0.63;;;;;;;;;;2083525;28;20127;-76
2021/09/03 06:25:43;;;;;;;8.07;0.65;;;;;;;;;;2082236;28;20108;-76
2021/09/03 06:27:03;;;;;;;1.63;0.60;;;;;;;;;;2080479;28;20029;-77
2021/09/03 06:28:23;;;;;;;2.63;0.88;;;;;;;;;;2080896;28;20033;-77
2021/09/03 06:31:00;;;;;;;0.85;0.50;;;;;;;;;;2075885;28;20038;-78
2021/09/03 06:32:26;;;;;;;0.52;0.30;;;;;;;;;;2080613;28;20030;-76
2021/09/03 06:33:45;;;;;;;0.95;0.52;;;;;;;;;;2078200;28;20025;-77
2021/09/03 06:35:05;;;;;;;2.13;0.63;;;;;;;;;;2080148;28;20104;-77
2021/09/03 06:36:24;;;;;;;0.85;0.75;;;;;;;;;;2080102;28;20018;-76
2021/09/03 06:37:44;;;;;;;1.35;0.68;;;;;;;;;;2078623;28;20026;-77
2021/09/03 06:39:02;;;;;;;2.17;0.70;;;;;;;;;;2077519;28;20748;-76
2021/09/03 06:40:21;;;;;;;2.85;0.68;;;;;;;;;;2077444;28;20025;-76
2021/09/03 06:41:40;;;;;;;6.70;0.95;;;;;;;;;;2081838;28;20096;-78
2021/09/03 06:42:59;;;;;;;0.63;0.50;;;;;;;;;;2080243;28;20505;-77
2021/09/03 06:44:18;;;;;;;0.95;0.70;;;;;;;;;;2068453;28;20037;-76
2021/09/03 06:45:37;;;;;;;2.58;0.95;;;;;;;;;;2076057;28;20477;-77
2021/09/03 06:46:55;;;;;;;2.33;0.47;;;;;;;;;;2078697;28;20033;-77
2021/09/03 06:48:14;;;;;;;6.65;0.52;;;;;;;;;;2081329;28;20021;-77
2021/09/03 06:49:33;;;;;;;2.38;1.80;;;;;;;;;;2073720;28;20029;-77
2021/09/03 06:50:52;;;;;;;1.50;0.50;;;;;;;;;;2081521;28;20109;-76
2021/09/03 06:52:12;;;;;;;6.18;0.60;;;;;;;;;;2079943;28;20026;-75
2021/09/03 06:53:30;;;;;;;4.20;0.90;;;;;;;;;;2088687;28;20216;-75
2021/09/03 06:54:49;;;;;;;1.00;0.65;;;;;;;;;;2078994;28;20030;-77
2021/09/03 06:56:08;;;;;;;0.80;0.80;;;;;;;;;;2084854;28;20447;-76
2021/09/03 06:57:27;;;;;;;1.80;0.77;;;;;;;;;;2083305;28;20030;-77
2021/09/03 06:58:46;;;;;;;1.10;0.40;;;;;;;;;;2082252;28;20057;-76
2021/09/03 07:00:05;;;;;;;3.03;0.90;;;;;;;;;;2080229;28;20034;-76
2021/09/03 07:01:24;;;;;;;4.32;0.50;;;;;;;;;;2080344;28;20108;-77
2021/09/03 07:02:43;;;;;;;1.10;0.63;;;;;;;;;;2083338;28;20030;-76
2021/09/03 07:04:02;;;;;;;2.33;0.50;;;;;;;;;;2079687;28;20460;-77
2021/09/03 07:05:21;;;;;;;0.50;0.43;;;;;;;;;;2077759;28;20060;-75
2021/09/03 07:06:40;;;;;;;3.05;0.50;;;;;;;;;;2086196;28;20040;-75
2021/09/03 07:07:59;;;;;;;3.05;0.38;;;;;;;;;;2081512;28;20116;-78
2021/09/03 07:09:18;;;;;;;8.48;0.52;;;;;;;;;;2085581;28;20060;-76
2021/09/03 07:10:37;;;;;;;0.43;0.38;;;;;;;;;;2083552;28;20021;-75
2021/09/03 07:11:56;;;;;;;0.55;0.30;;;;;;;;;;2082211;28;20100;-76
2021/09/03 07:13:16;;;;;;;1.05;0.43;;;;;;;;;;2086545;28;20017;-75
2021/09/03 07:14:36;;;;;;;2.65;0.50;;;;;;;;;;2090975;28;20412;-76
2021/09/03 07:15:55;;;;;;;1.08;0.45;;;;;;;;;;2082822;28;20034;-76
2021/09/03 07:17:14;;;;;;;1.17;0.47;;;;;;;;;;2079282;28;20501;-76
2021/09/03 07:18:33;;;;;;;4.05;0.55;;;;;;;;;;2081333;28;20041;-76
2021/09/03 07:19:52;;;;;;;2.35;0.55;;;;;;;;;;2082237;28;20025;-76
2021/09/03 07:21:10;;;;;;;0.95;0.40;;;;;;;;;;2080236;28;20025;-77
2021/09/03 07:22:29;;;;;;;1.65;0.50;;;;;;;;;;2077676;28;20432;-77
2021/09/03 07:23:48;;;;;;;3.92;0.57;;;;;;;;;;2080848;28;20389;-77
2021/09/03 07:25:09;;;;;;;0.28;0.22;;;;;;;;;;2081808;28;20073;-76
2021/09/03 07:26:28;;;;;;;5.45;0.40;;;;;;;;;;2082989;28;20474;-77
2021/09/03 07:27:46;;;;;;;3.17;0.30;;;;;;;;;;2078796;28;20017;-77
2021/09/03 07:29:05;;;;;;;0.95;0.47;;;;;;;;;;2080337;28;20037;-76
2021/09/03 07:30:24;;;;;;;1.50;0.57;;;;;;;;;;2085912;28;20480;-77
2021/09/03 07:31:43;;;;;;;1.98;0.60;;;;;;;;;;2080246;28;20034;-77
2021/09/03 07:33:02;;;;;;;0.63;0.30;;;;;;;;;;2082481;28;20030;-77
2021/09/03 07:34:21;;;;;;;0.50;0.40;;;;;;;;;;2081840;28;20029;-77
2021/09/03 07:35:40;;;;;;;8.13;1.00;;;;;;;;;;2078320;28;20407;-77
2021/09/03 07:36:59;;;;;;;4.95;0.50;;;;;;;;;;2078517;28;20418;-77
2021/09/03 07:38:18;;;;;;;0.70;0.40;;;;;;;;;;2077384;28;20195;-77
2021/09/03 07:39:37;;;;;;;0.95;0.40;;;;;;;;;;2083578;28;20021;-77
2021/09/03 07:40:55;;;;;;;0.45;0.30;;;;;;;;;;2077912;28;20014;-77
2021/09/03 07:42:14;;;;;;;0.70;0.20;;;;;;;;;;2078592;28;20482;-76
2021/09/03 07:43:33;;;;;;;3.78;0.70;;;;;;;;;;2077146;28;20037;-76
2021/09/03 07:44:52;;;;;;;6.07;0.70;;;;;;;;;;2081171;28;20033;-76
2021/09/03 07:46:11;;;;;;;2.65;0.60;;;;;;;;;;2081784;28;20029;-76
2021/09/03 07:47:29;;;;;;;0.50;0.40;;;;;;;;;;2081542;28;20018;-77
2021/09/03 07:48:48;;;;;;;1.23;0.50;;;;;;;;;;2082140;28;20381;-76
2021/09/03 07:50:07;;;;;;;2.22;0.65;;;;;;;;;;2078344;28;20025;-76
2021/09/03 07:51:26;;;;;;;0.95;0.40;;;;;;;;;;2079730;28;20021;-76
2021/09/03 07:52:45;;;;;;;0.80;0.32;;;;;;;;;;2081435;28;20549;-76
2021/09/03 07:54:04;;;;;;;1.95;0.80;;;;;;;;;;2082034;28;20037;-76
2021/09/03 07:55:23;;;;;;;3.88;0.60;;;;;;;;;;2082170;28;20037;-77